sensor_id;sensor_type;location;lat;lon;timestamp;temperature;humidity
5210;DHT22;2624;48.048;11.706;2022-12-20T00:00:18;0.00;99.90
5210;DHT22;2624;48.048;11.706;2022-12-20T00:05:20;0.00;99.90
5210;DHT22;2624;48.048;11.706;2022-12-20T00:10:23;0.00;99.90
5210;DHT22;2624;48.048;11.706;2022-12-20T00:15:25;-0.10;99.90
5210;DHT22;2624;48.048;11.706;2022-12-20T00:20:27;0.00;99.90
5210;DHT22;2624;48.048;11.706;2022-12-20T00:25:31;-0.10;99.90
5210;DHT22;2624;48.048;11.706;2022-12-20T00:30:34;-0.10;99.90
5210;DHT22;2624;48.048;11.706;2022-12-20T00:35:40;-0.10;99.90
5210;DHT22;2624;48.048;11.706;2022-12-20T00:40:44;0.00;99.90
5210;DHT22;2624;48.048;11.706;2022-12-20T00:45:45;0.00;99.90
5210;DHT22;2624;48.048;11.706;2022-12-20T00:50:47;0.00;99.90
5210;DHT22;2624;48.048;11.706;2022-12-20T00:55:50;0.00;99.90
5210;DHT22;2624;48.048;11.706;2022-12-20T01:00:53;0.10;99.90
5210;DHT22;2624;48.048;11.706;2022-12-20T01:05:56;0.00;99.90
5210;DHT22;2624;48.048;11.706;2022-12-20T01:11:01;0.00;99.90
5210;DHT22;2624;48.048;11.706;2022-12-20T01:16:05;0.00;99.90
5210;DHT22;2624;48.048;11.706;2022-12-20T01:21:10;0.00;99.90
5210;DHT22;2624;48.048;11.706;2022-12-20T01:26:15;0.00;99.90
5210;DHT22;2624;48.048;11.706;2022-12-20T01:31:19;0.00;99.90
5210;DHT22;2624;48.048;11.706;2022-12-20T01:36:22;0.00;99.90
5210;DHT22;2624;48.048;11.706;2022-12-20T01:41:27;0.00;99.90
5210;DHT22;2624;48.048;11.706;2022-12-20T01:46:31;0.00;99.90
5210;DHT22;2624;48.048;11.706;2022-12-20T01:51:36;0.00;99.90
5210;DHT22;2624;48.048;11.706;2022-12-20T01:56:42;0.00;99.90
5210;DHT22;2624;48.048;11.706;2022-12-20T02:01:45;0.10;99.90
5210;DHT22;2624;48.048;11.706;2022-12-20T02:06:47;0.10;99.90
5210;DHT22;2624;48.048;11.706;2022-12-20T02:12:01;0.10;99.90
5210;DHT22;2624;48.048;11.706;2022-12-20T02:17:14;0.10;99.90
5210;DHT22;2624;48.048;11.706;2022-12-20T02:22:27;0.10;99.90
5210;DHT22;2624;48.048;11.706;2022-12-20T02:27:49;0.10;99.90
5210;DHT22;2624;48.048;11.706;2022-12-20T02:32:59;0.10;99.90
5210;DHT22;2624;48.048;11.706;2022-12-20T02:38:04;0.10;99.90
5210;DHT22;2624;48.048;11.706;2022-12-20T02:43:26;0.00;99.90
5210;DHT22;2624;48.048;11.706;2022-12-20T02:48:48;0.10;99.90
5210;DHT22;2624;48.048;11.706;2022-12-20T02:53:51;0.10;99.90
5210;DHT22;2624;48.048;11.706;2022-12-20T02:58:57;0.10;99.90
5210;DHT22;2624;48.048;11.706;2022-12-20T03:04:01;0.10;99.90
5210;DHT22;2624;48.048;11.706;2022-12-20T03:09:04;0.10;99.90
5210;DHT22;2624;48.048;11.706;2022-12-20T03:14:06;0.10;99.90
5210;DHT22;2624;48.048;11.706;2022-12-20T03:19:09;0.10;99.90
5210;DHT22;2624;48.048;11.706;2022-12-20T03:24:11;0.10;99.90
5210;DHT22;2624;48.048;11.706;2022-12-20T03:29:13;0.10;99.90
5210;DHT22;2624;48.048;11.706;2022-12-20T03:34:16;0.20;99.90
5210;DHT22;2624;48.048;11.706;2022-12-20T03:39:18;0.10;99.90
5210;DHT22;2624;48.048;11.706;2022-12-20T03:44:20;0.20;99.90
5210;DHT22;2624;48.048;11.706;2022-12-20T03:49:23;0.10;99.90
5210;DHT22;2624;48.048;11.706;2022-12-20T03:54:25;0.20;99.90
5210;DHT22;2624;48.048;11.706;2022-12-20T03:59:27;0.20;99.90
5210;DHT22;2624;48.048;11.706;2022-12-20T04:04:30;0.30;99.90
5210;DHT22;2624;48.048;11.706;2022-12-20T04:09:32;0.30;99.90
5210;DHT22;2624;48.048;11.706;2022-12-20T04:14:33;0.20;99.90
5210;DHT22;2624;48.048;11.706;2022-12-20T04:19:38;0.20;99.90
5210;DHT22;2624;48.048;11.706;2022-12-20T04:24:40;0.30;99.90
5210;DHT22;2624;48.048;11.706;2022-12-20T04:29:41;0.40;99.90
5210;DHT22;2624;48.048;11.706;2022-12-20T04:34:44;0.30;99.90
5210;DHT22;2624;48.048;11.706;2022-12-20T04:39:46;0.30;99.90
5210;DHT22;2624;48.048;11.706;2022-12-20T04:44:48;0.30;99.90
5210;DHT22;2624;48.048;11.706;2022-12-20T04:49:51;0.40;99.90
5210;DHT22;2624;48.048;11.706;2022-12-20T04:54:53;0.40;99.90
5210;DHT22;2624;48.048;11.706;2022-12-20T04:59:55;0.40;99.90
5210;DHT22;2624;48.048;11.706;2022-12-20T05:04:59;0.40;99.90
5210;DHT22;2624;48.048;11.706;2022-12-20T05:10:01;0.50;99.90
5210;DHT22;2624;48.048;11.706;2022-12-20T05:15:03;0.50;99.90
5210;DHT22;2624;48.048;11.706;2022-12-20T05:20:08;0.50;99.90
5210;DHT22;2624;48.048;11.706;2022-12-20T05:25:10;0.40;99.90
5210;DHT22;2624;48.048;11.706;2022-12-20T05:30:30;0.30;99.90
5210;DHT22;2624;48.048;11.706;2022-12-20T05:35:33;0.30;99.90
5210;DHT22;2624;48.048;11.706;2022-12-20T05:40:35;0.30;99.90
5210;DHT22;2624;48.048;11.706;2022-12-20T05:45:37;0.40;99.90
5210;DHT22;2624;48.048;11.706;2022-12-20T05:50:40;0.50;99.90
5210;DHT22;2624;48.048;11.706;2022-12-20T05:55:44;0.50;99.90
5210;DHT22;2624;48.048;11.706;2022-12-20T06:00:46;0.50;99.90
5210;DHT22;2624;48.048;11.706;2022-12-20T06:05:50;0.60;99.90
5210;DHT22;2624;48.048;11.706;2022-12-20T06:10:51;0.60;99.90
5210;DHT22;2624;48.048;11.706;2022-12-20T06:15:53;0.60;99.90
5210;DHT22;2624;48.048;11.706;2022-12-20T06:20:56;0.60;99.90
5210;DHT22;2624;48.048;11.706;2022-12-20T06:25:58;0.60;99.90
5210;DHT22;2624;48.048;11.706;2022-12-20T06:31:00;0.50;99.90
5210;DHT22;2624;48.048;11.706;2022-12-20T06:36:04;0.60;99.90
5210;DHT22;2624;48.048;11.706;2022-12-20T06:41:06;0.50;99.90
5210;DHT22;2624;48.048;11.706;2022-12-20T06:46:07;0.50;99.90
5210;DHT22;2624;48.048;11.706;2022-12-20T06:51:11;0.60;99.90
5210;DHT22;2624;48.048;11.706;2022-12-20T06:56:12;0.70;99.90
5210;DHT22;2624;48.048;11.706;2022-12-20T07:01:14;0.60;99.90
5210;DHT22;2624;48.048;11.706;2022-12-20T07:06:17;0.60;99.90
5210;DHT22;2624;48.048;11.706;2022-12-20T07:11:19;0.40;99.90
5210;DHT22;2624;48.048;11.706;2022-12-20T07:16:21;0.60;99.90
5210;DHT22;2624;48.048;11.706;2022-12-20T07:21:25;0.60;99.90
5210;DHT22;2624;48.048;11.706;2022-12-20T07:26:27;0.60;99.90
5210;DHT22;2624;48.048;11.706;2022-12-20T07:31:28;0.70;99.90
5210;DHT22;2624;48.048;11.706;2022-12-20T07:36:31;0.80;99.90
5210;DHT22;2624;48.048;11.706;2022-12-20T07:41:33;0.90;99.90
5210;DHT22;2624;48.048;11.706;2022-12-20T07:46:35;0.80;99.90
5210;DHT22;2624;48.048;11.706;2022-12-20T07:51:40;0.80;99.90
5210;DHT22;2624;48.048;11.706;2022-12-20T07:56:45;0.80;99.90
5210;DHT22;2624;48.048;11.706;2022-12-20T08:01:47;0.80;99.90
5210;DHT22;2624;48.048;11.706;2022-12-20T08:06:52;0.90;99.90
5210;DHT22;2624;48.048;11.706;2022-12-20T08:11:57;0.90;99.90
5210;DHT22;2624;48.048;11.706;2022-12-20T08:16:59;0.70;99.90
5210;DHT22;2624;48.048;11.706;2022-12-20T08:22:03;0.90;99.90
5210;DHT22;2624;48.048;11.706;2022-12-20T08:27:05;1.00;99.90
5210;DHT22;2624;48.048;11.706;2022-12-20T08:32:07;1.00;99.90
5210;DHT22;2624;48.048;11.706;2022-12-20T08:37:11;1.10;99.90
5210;DHT22;2624;48.048;11.706;2022-12-20T08:42:12;1.20;99.90
5210;DHT22;2624;48.048;11.706;2022-12-20T08:47:14;1.20;99.90
5210;DHT22;2624;48.048;11.706;2022-12-20T08:52:17;1.00;99.90
5210;DHT22;2624;48.048;11.706;2022-12-20T08:57:19;0.90;99.90
5210;DHT22;2624;48.048;11.706;2022-12-20T09:02:21;0.80;99.90
5210;DHT22;2624;48.048;11.706;2022-12-20T09:07:24;1.00;99.90
5210;DHT22;2624;48.048;11.706;2022-12-20T09:12:26;1.20;99.90
5210;DHT22;2624;48.048;11.706;2022-12-20T09:17:28;1.20;99.90
5210;DHT22;2624;48.048;11.706;2022-12-20T09:22:31;1.50;99.90
5210;DHT22;2624;48.048;11.706;2022-12-20T09:27:33;1.40;99.90
5210;DHT22;2624;48.048;11.706;2022-12-20T09:32:35;1.40;99.90
5210;DHT22;2624;48.048;11.706;2022-12-20T09:37:38;1.50;99.90
5210;DHT22;2624;48.048;11.706;2022-12-20T09:42:40;1.70;99.90
5210;DHT22;2624;48.048;11.706;2022-12-20T09:47:42;1.70;99.90
5210;DHT22;2624;48.048;11.706;2022-12-20T09:52:56;1.50;99.90
5210;DHT22;2624;48.048;11.706;2022-12-20T09:58:24;1.70;99.90
5210;DHT22;2624;48.048;11.706;2022-12-20T10:03:32;1.90;99.90
5210;DHT22;2624;48.048;11.706;2022-12-20T10:08:46;1.80;99.90
5210;DHT22;2624;48.048;11.706;2022-12-20T10:13:57;1.90;99.90
5210;DHT22;2624;48.048;11.706;2022-12-20T10:24:31;2.00;99.90
5210;DHT22;2624;48.048;11.706;2022-12-20T10:29:34;2.40;99.90
5210;DHT22;2624;48.048;11.706;2022-12-20T10:34:35;2.40;99.90
5210;DHT22;2624;48.048;11.706;2022-12-20T10:39:42;2.20;99.90
5210;DHT22;2624;48.048;11.706;2022-12-20T10:44:45;2.30;99.90
5210;DHT22;2624;48.048;11.706;2022-12-20T10:49:47;2.50;99.90
5210;DHT22;2624;48.048;11.706;2022-12-20T10:54:50;2.60;99.90
5210;DHT22;2624;48.048;11.706;2022-12-20T10:59:53;2.60;99.90
5210;DHT22;2624;48.048;11.706;2022-12-20T11:04:58;2.60;99.90
5210;DHT22;2624;48.048;11.706;2022-12-20T11:10:17;2.70;99.90
5210;DHT22;2624;48.048;11.706;2022-12-20T11:15:21;2.70;99.90
5210;DHT22;2624;48.048;11.706;2022-12-20T11:20:34;2.70;99.90
5210;DHT22;2624;48.048;11.706;2022-12-20T11:25:58;2.90;99.90
5210;DHT22;2624;48.048;11.706;2022-12-20T11:31:13;3.00;99.90
5210;DHT22;2624;48.048;11.706;2022-12-20T11:36:24;3.00;99.90
5210;DHT22;2624;48.048;11.706;2022-12-20T11:41:33;3.00;99.90
5210;DHT22;2624;48.048;11.706;2022-12-20T11:46:49;3.10;99.90
5210;DHT22;2624;48.048;11.706;2022-12-20T11:52:03;3.30;99.90
5210;DHT22;2624;48.048;11.706;2022-12-20T11:57:13;3.40;99.90
5210;DHT22;2624;48.048;11.706;2022-12-20T12:02:21;3.70;99.90
5210;DHT22;2624;48.048;11.706;2022-12-20T12:07:27;3.70;99.90
5210;DHT22;2624;48.048;11.706;2022-12-20T12:12:33;3.60;99.90
5210;DHT22;2624;48.048;11.706;2022-12-20T12:17:41;3.50;99.90
5210;DHT22;2624;48.048;11.706;2022-12-20T12:22:48;3.70;99.90
5210;DHT22;2624;48.048;11.706;2022-12-20T12:27:53;3.60;99.90
5210;DHT22;2624;48.048;11.706;2022-12-20T12:32:59;3.80;99.90
5210;DHT22;2624;48.048;11.706;2022-12-20T12:38:08;3.70;99.90
5210;DHT22;2624;48.048;11.706;2022-12-20T12:43:50;3.50;99.90
5210;DHT22;2624;48.048;11.706;2022-12-20T12:48:57;3.50;99.90
5210;DHT22;2624;48.048;11.706;2022-12-20T12:54:13;3.60;99.90
5210;DHT22;2624;48.048;11.706;2022-12-20T13:04:52;3.70;99.90
5210;DHT22;2624;48.048;11.706;2022-12-20T13:09:54;3.60;99.90
5210;DHT22;2624;48.048;11.706;2022-12-20T13:14:59;3.60;99.90
5210;DHT22;2624;48.048;11.706;2022-12-20T13:20:01;3.60;99.90
5210;DHT22;2624;48.048;11.706;2022-12-20T13:25:28;3.50;99.90
5210;DHT22;2624;48.048;11.706;2022-12-20T13:30:31;3.60;99.90
5210;DHT22;2624;48.048;11.706;2022-12-20T13:35:55;3.40;99.90
5210;DHT22;2624;48.048;11.706;2022-12-20T13:40:59;3.20;99.90
5210;DHT22;2624;48.048;11.706;2022-12-20T13:46:12;3.30;99.90
5210;DHT22;2624;48.048;11.706;2022-12-20T13:51:15;3.40;99.90
5210;DHT22;2624;48.048;11.706;2022-12-20T13:56:32;3.10;99.90
5210;DHT22;2624;48.048;11.706;2022-12-20T14:01:36;3.20;99.90
5210;DHT22;2624;48.048;11.706;2022-12-20T14:06:50;3.30;99.90
5210;DHT22;2624;48.048;11.706;2022-12-20T14:11:53;3.30;99.90
5210;DHT22;2624;48.048;11.706;2022-12-20T14:17:13;3.10;99.90
5210;DHT22;2624;48.048;11.706;2022-12-20T14:22:15;3.10;99.90
5210;DHT22;2624;48.048;11.706;2022-12-20T14:27:17;3.10;99.90
5210;DHT22;2624;48.048;11.706;2022-12-20T14:32:20;3.10;99.90
5210;DHT22;2624;48.048;11.706;2022-12-20T14:37:30;3.00;99.90
5210;DHT22;2624;48.048;11.706;2022-12-20T14:42:35;3.00;99.90
5210;DHT22;2624;48.048;11.706;2022-12-20T14:47:48;3.00;99.90
5210;DHT22;2624;48.048;11.706;2022-12-20T14:52:50;3.00;99.90
5210;DHT22;2624;48.048;11.706;2022-12-20T14:57:54;3.00;99.90
5210;DHT22;2624;48.048;11.706;2022-12-20T15:03:00;2.90;99.90
5210;DHT22;2624;48.048;11.706;2022-12-20T15:08:09;2.90;99.90
5210;DHT22;2624;48.048;11.706;2022-12-20T15:13:12;2.90;99.90
5210;DHT22;2624;48.048;11.706;2022-12-20T15:18:18;2.80;99.90
5210;DHT22;2624;48.048;11.706;2022-12-20T15:23:21;2.80;99.90
5210;DHT22;2624;48.048;11.706;2022-12-20T15:28:24;2.80;99.90
5210;DHT22;2624;48.048;11.706;2022-12-20T15:33:31;2.70;99.90
5210;DHT22;2624;48.048;11.706;2022-12-20T15:38:33;2.70;99.90
5210;DHT22;2624;48.048;11.706;2022-12-20T15:43:37;2.70;99.90
5210;DHT22;2624;48.048;11.706;2022-12-20T15:48:40;2.60;99.90
5210;DHT22;2624;48.048;11.706;2022-12-20T15:53:42;2.60;99.90
5210;DHT22;2624;48.048;11.706;2022-12-20T15:58:44;2.60;99.90
5210;DHT22;2624;48.048;11.706;2022-12-20T16:03:48;2.60;99.90
5210;DHT22;2624;48.048;11.706;2022-12-20T16:08:49;2.50;99.90
5210;DHT22;2624;48.048;11.706;2022-12-20T16:13:51;2.50;99.90
5210;DHT22;2624;48.048;11.706;2022-12-20T16:18:55;2.50;99.90
5210;DHT22;2624;48.048;11.706;2022-12-20T16:23:58;2.50;99.90
5210;DHT22;2624;48.048;11.706;2022-12-20T16:28:59;2.40;99.90
5210;DHT22;2624;48.048;11.706;2022-12-20T16:34:05;2.40;99.90
5210;DHT22;2624;48.048;11.706;2022-12-20T16:39:07;2.40;99.90
5210;DHT22;2624;48.048;11.706;2022-12-20T16:44:12;2.40;99.90
5210;DHT22;2624;48.048;11.706;2022-12-20T16:49:16;2.30;99.90
5210;DHT22;2624;48.048;11.706;2022-12-20T16:54:20;2.10;99.90
5210;DHT22;2624;48.048;11.706;2022-12-20T16:59:22;2.20;99.90
5210;DHT22;2624;48.048;11.706;2022-12-20T17:04:26;2.20;99.90
5210;DHT22;2624;48.048;11.706;2022-12-20T17:09:27;2.20;99.90
5210;DHT22;2624;48.048;11.706;2022-12-20T17:14:29;2.20;99.90
5210;DHT22;2624;48.048;11.706;2022-12-20T17:19:32;2.20;99.90
5210;DHT22;2624;48.048;11.706;2022-12-20T17:24:34;2.10;99.90
5210;DHT22;2624;48.048;11.706;2022-12-20T17:29:36;2.10;99.90
5210;DHT22;2624;48.048;11.706;2022-12-20T17:34:39;2.20;99.90
5210;DHT22;2624;48.048;11.706;2022-12-20T17:39:41;2.20;99.90
5210;DHT22;2624;48.048;11.706;2022-12-20T17:44:43;2.20;99.90
5210;DHT22;2624;48.048;11.706;2022-12-20T17:49:47;2.10;99.90
5210;DHT22;2624;48.048;11.706;2022-12-20T17:54:49;2.10;99.90
5210;DHT22;2624;48.048;11.706;2022-12-20T17:59:50;2.10;99.90
5210;DHT22;2624;48.048;11.706;2022-12-20T18:04:54;2.10;99.90
5210;DHT22;2624;48.048;11.706;2022-12-20T18:09:55;2.10;99.90
5210;DHT22;2624;48.048;11.706;2022-12-20T18:14:57;2.10;99.90
5210;DHT22;2624;48.048;11.706;2022-12-20T18:20:00;2.10;99.90
5210;DHT22;2624;48.048;11.706;2022-12-20T18:25:03;2.10;99.90
5210;DHT22;2624;48.048;11.706;2022-12-20T18:30:09;2.10;99.90
5210;DHT22;2624;48.048;11.706;2022-12-20T18:35:13;2.10;99.90
5210;DHT22;2624;48.048;11.706;2022-12-20T18:40:15;2.00;99.90
5210;DHT22;2624;48.048;11.706;2022-12-20T18:45:16;2.00;99.90
5210;DHT22;2624;48.048;11.706;2022-12-20T18:50:19;2.00;99.90
5210;DHT22;2624;48.048;11.706;2022-12-20T18:55:21;2.00;99.90
5210;DHT22;2624;48.048;11.706;2022-12-20T19:00:24;1.80;99.90
5210;DHT22;2624;48.048;11.706;2022-12-20T19:05:27;1.80;99.90
5210;DHT22;2624;48.048;11.706;2022-12-20T19:10:30;1.80;99.90
5210;DHT22;2624;48.048;11.706;2022-12-20T19:15:32;1.80;99.90
5210;DHT22;2624;48.048;11.706;2022-12-20T19:20:36;1.70;99.90
5210;DHT22;2624;48.048;11.706;2022-12-20T19:25:38;1.80;99.90
5210;DHT22;2624;48.048;11.706;2022-12-20T19:30:40;1.70;99.90
5210;DHT22;2624;48.048;11.706;2022-12-20T19:35:43;1.70;99.90
5210;DHT22;2624;48.048;11.706;2022-12-20T19:40:50;1.70;99.90
5210;DHT22;2624;48.048;11.706;2022-12-20T19:45:52;1.70;99.90
5210;DHT22;2624;48.048;11.706;2022-12-20T19:51:01;1.70;99.90
5210;DHT22;2624;48.048;11.706;2022-12-20T19:56:04;1.70;99.90
5210;DHT22;2624;48.048;11.706;2022-12-20T20:01:07;1.70;99.90
5210;DHT22;2624;48.048;11.706;2022-12-20T20:06:10;1.70;99.90
5210;DHT22;2624;48.048;11.706;2022-12-20T20:11:13;1.70;99.90
5210;DHT22;2624;48.048;11.706;2022-12-20T20:16:14;1.70;99.90
5210;DHT22;2624;48.048;11.706;2022-12-20T20:21:20;1.70;99.90
5210;DHT22;2624;48.048;11.706;2022-12-20T20:26:24;1.70;99.90
5210;DHT22;2624;48.048;11.706;2022-12-20T20:31:28;1.80;99.90
5210;DHT22;2624;48.048;11.706;2022-12-20T20:36:32;1.90;99.90
5210;DHT22;2624;48.048;11.706;2022-12-20T20:41:34;1.90;99.90
5210;DHT22;2624;48.048;11.706;2022-12-20T20:46:35;1.80;99.90
5210;DHT22;2624;48.048;11.706;2022-12-20T20:51:39;1.90;99.90
5210;DHT22;2624;48.048;11.706;2022-12-20T20:56:40;1.90;99.90
5210;DHT22;2624;48.048;11.706;2022-12-20T21:01:42;1.80;99.90
5210;DHT22;2624;48.048;11.706;2022-12-20T21:06:45;1.90;99.90
5210;DHT22;2624;48.048;11.706;2022-12-20T21:11:47;1.90;99.90
5210;DHT22;2624;48.048;11.706;2022-12-20T21:16:49;1.90;99.90
5210;DHT22;2624;48.048;11.706;2022-12-20T21:21:52;2.00;99.90
5210;DHT22;2624;48.048;11.706;2022-12-20T21:26:54;2.00;99.90
5210;DHT22;2624;48.048;11.706;2022-12-20T21:31:56;2.00;99.90
5210;DHT22;2624;48.048;11.706;2022-12-20T21:36:59;2.20;99.90
5210;DHT22;2624;48.048;11.706;2022-12-20T21:42:00;2.10;99.90
5210;DHT22;2624;48.048;11.706;2022-12-20T21:47:02;2.00;99.90
5210;DHT22;2624;48.048;11.706;2022-12-20T21:52:06;2.10;99.90
5210;DHT22;2624;48.048;11.706;2022-12-20T21:57:08;2.10;99.90
5210;DHT22;2624;48.048;11.706;2022-12-20T22:02:11;2.10;99.90
5210;DHT22;2624;48.048;11.706;2022-12-20T22:07:15;2.00;99.90
5210;DHT22;2624;48.048;11.706;2022-12-20T22:12:16;2.00;99.90
5210;DHT22;2624;48.048;11.706;2022-12-20T22:17:18;2.10;99.90
5210;DHT22;2624;48.048;11.706;2022-12-20T22:22:23;2.00;99.90
5210;DHT22;2624;48.048;11.706;2022-12-20T22:27:25;2.00;99.90
5210;DHT22;2624;48.048;11.706;2022-12-20T22:32:27;2.00;99.90
5210;DHT22;2624;48.048;11.706;2022-12-20T22:37:30;2.00;99.90
5210;DHT22;2624;48.048;11.706;2022-12-20T22:42:32;2.00;99.90
5210;DHT22;2624;48.048;11.706;2022-12-20T22:47:34;1.80;99.90
5210;DHT22;2624;48.048;11.706;2022-12-20T22:52:37;1.80;99.90
5210;DHT22;2624;48.048;11.706;2022-12-20T22:57:39;1.90;99.90
5210;DHT22;2624;48.048;11.706;2022-12-20T23:02:41;1.80;99.90
5210;DHT22;2624;48.048;11.706;2022-12-20T23:07:44;1.80;99.90
5210;DHT22;2624;48.048;11.706;2022-12-20T23:12:46;1.80;99.90
5210;DHT22;2624;48.048;11.706;2022-12-20T23:18:05;1.80;99.90
5210;DHT22;2624;48.048;11.706;2022-12-20T23:23:08;1.90;99.90
5210;DHT22;2624;48.048;11.706;2022-12-20T23:28:10;1.90;99.90
5210;DHT22;2624;48.048;11.706;2022-12-20T23:33:12;1.80;99.90
5210;DHT22;2624;48.048;11.706;2022-12-20T23:38:15;1.80;99.90
5210;DHT22;2624;48.048;11.706;2022-12-20T23:43:16;1.80;99.90
5210;DHT22;2624;48.048;11.706;2022-12-20T23:48:18;1.80;99.90
5210;DHT22;2624;48.048;11.706;2022-12-20T23:53:21;1.90;99.90
5210;DHT22;2624;48.048;11.706;2022-12-20T23:58:23;1.90;99.90
